Time;durP1;ratioP1;P1;durP2;ratioP2;P2;SDS_P1;SDS_P2;PMS_P1;PMS_P2;Temp;Humidity;BMP_temperature;BMP_pressure;BME280_temperature;BME280_humidity;BME280_pressure;Samples;Min_cycle;Max_cycle;Signal;HPM_P1;HPM_P2
2023/01/30 00:01:23;;;;;;;9.47;6.53;;;;;;;-143.84;66.13;45279.47;5010158;28;20790;-74
2023/01/30 00:03:50;;;;;;;6.90;5.93;;;;;;;-143.84;65.33;45296.63;5010583;28;20451;-74
2023/01/30 00:06:17;;;;;;;9.47;5.47;;;;;;;-143.84;65.38;45277.56;5010619;28;20439;-74
2023/01/30 00:08:46;;;;;;;6.13;5.47;;;;;;;-143.84;65.38;45271.88;5010822;28;20440;-74
2023/01/30 00:11:15;;;;;;;7.40;5.00;;;;;;;-143.84;65.53;45279.47;5010698;28;21174;-74
2023/01/30 00:13:43;;;;;;;6.77;5.40;;;;;;;-143.84;65.13;45277.56;5010468;28;20440;-74
2023/01/30 00:16:11;;;;;;;7.70;5.63;;;;;;;-143.84;64.91;45275.66;5010473;28;21005;-74
2023/01/30 00:18:39;;;;;;;9.17;5.97;;;;;;;-143.84;65.36;45247.09;5010121;28;20483;-74
2023/01/30 00:21:08;;;;;;;11.30;6.47;;;;;;;-143.84;65.01;45289.00;4990251;28;20449;-74
2023/01/30 00:23:36;;;;;;;16.00;7.37;;;;;;;-143.84;65.06;45269.97;4990033;28;20518;-74
2023/01/30 00:26:06;;;;;;;13.17;7.33;;;;;;;-143.84;65.06;45289.00;4989707;28;20824;-74
2023/01/30 00:28:34;;;;;;;10.33;6.93;;;;;;;-143.84;65.45;45264.25;4989759;28;20454;-74
2023/01/30 00:31:01;;;;;;;9.40;6.83;;;;;;;-143.84;65.16;45268.06;4990186;28;20978;-74
2023/01/30 00:33:28;;;;;;;11.17;7.00;;;;;;;-143.84;65.02;45258.53;4990083;28;20434;-74
2023/01/30 00:35:57;;;;;;;9.40;6.27;;;;;;;-143.84;65.22;45334.72;4989838;28;20521;-74
2023/01/30 00:38:25;;;;;;;9.27;6.43;;;;;;;-143.84;65.45;45271.88;4989791;28;20544;-74
2023/01/30 00:40:52;;;;;;;9.87;6.93;;;;;;;-143.84;65.12;45268.06;4989576;28;20445;-74
2023/01/30 00:48:59;;;;;;;11.30;7.70;;;;;;;-143.84;65.62;45271.88;4993521;28;20459;-74
2023/01/30 00:51:26;;;;;;;11.00;7.13;;;;;;;-143.84;65.61;45298.53;4993524;28;20458;-74
2023/01/30 00:53:53;;;;;;;9.47;6.90;;;;;;;-143.84;65.50;45311.84;4993042;28;20519;-74
2023/01/30 00:56:20;;;;;;;16.10;8.77;;;;;;;-143.84;65.13;45247.09;4993113;28;20514;-75
2023/01/30 00:58:48;;;;;;;13.00;8.40;;;;;;;-143.84;64.74;45296.63;4992445;28;20479;-74
2023/01/30 01:01:15;;;;;;;14.90;8.43;;;;;;;-143.84;65.59;45289.00;4992745;28;20464;-74
2023/01/30 01:03:44;;;;;;;12.50;8.13;;;;;;;-143.84;65.42;45273.78;4992970;28;20446;-74
2023/01/30 01:06:11;;;;;;;11.20;7.77;;;;;;;-143.84;64.88;45269.97;4992790;28;20469;-74
2023/01/30 01:08:38;;;;;;;7.33;6.33;;;;;;;-143.84;65.22;45304.25;4992810;28;20511;-74
2023/01/30 01:11:05;;;;;;;7.63;6.00;;;;;;;-143.84;64.88;45275.66;4993172;28;20502;-74
2023/01/30 01:13:32;;;;;;;7.87;5.70;;;;;;;-143.84;64.96;45264.25;4993485;28;20502;-74
2023/01/30 01:16:01;;;;;;;9.40;6.03;;;;;;;-143.84;64.96;45269.97;4993404;28;21207;-74
2023/01/30 01:18:28;;;;;;;7.23;5.80;;;;;;;-143.84;64.77;45258.53;4993636;28;20484;-74
2023/01/30 01:20:55;;;;;;;9.23;6.70;;;;;;;-143.84;64.92;45264.25;5011683;28;20495;-74
2023/01/30 01:23:22;;;;;;;18.60;6.27;;;;;;;-143.84;65.16;45281.38;5012988;28;20431;-74
2023/01/30 01:25:49;;;;;;;9.30;6.67;;;;;;;-143.84;64.65;45277.56;5012394;28;20441;-74
2023/01/30 01:28:20;;;;;;;12.80;8.30;;;;;;;-143.84;64.84;45262.34;5012312;28;20517;-74
2023/01/30 01:30:47;;;;;;;14.00;8.43;;;;;;;-143.84;65.52;45243.31;5011466;28;20885;-74
2023/01/30 01:33:16;;;;;;;11.20;7.53;;;;;;;-143.84;64.77;45281.38;5010535;28;20440;-74
2023/01/30 01:35:43;;;;;;;8.10;5.80;;;;;;;-143.84;64.34;45262.34;5010939;28;20930;-74
2023/01/30 01:38:10;;;;;;;10.40;5.57;;;;;;;-143.84;63.83;45258.53;5011602;28;20451;-74
2023/01/30 01:43:24;;;;;;;10.10;5.60;;;;;;;-143.84;64.01;45292.81;5012165;28;20812;-74
2023/01/30 01:45:58;;;;;;;10.23;6.30;;;;;;;-143.84;63.85;45258.53;5011617;28;20441;-74
2023/01/30 01:48:30;;;;;;;8.43;5.90;;;;;;;-143.84;63.60;45285.19;5011709;28;20503;-74
2023/01/30 01:51:01;;;;;;;10.27;6.57;;;;;;;-143.84;63.97;45266.16;5012149;28;21288;-74
2023/01/30 01:53:33;;;;;;;7.90;5.77;;;;;;;-143.84;63.54;45300.44;5011205;28;20804;-74
2023/01/30 01:56:02;;;;;;;8.57;6.13;;;;;;;-143.84;63.42;45277.56;5012274;28;20510;-74
2023/01/30 01:58:34;;;;;;;9.93;6.97;;;;;;;-143.84;63.08;45281.38;5012266;28;20918;-74
2023/01/30 02:01:01;;;;;;;8.80;6.40;;;;;;;-143.84;63.10;45273.78;5012033;28;20450;-74
2023/01/30 02:03:35;;;;;;;9.50;5.57;;;;;;;-143.84;63.79;45273.78;5012351;28;20429;-74
2023/01/30 02:06:03;;;;;;;9.27;6.20;;;;;;;-143.84;63.96;45247.09;5012422;28;20441;-74
2023/01/30 02:08:34;;;;;;;10.20;6.20;;;;;;;-143.84;63.41;45262.34;5012817;28;20440;-74
2023/01/30 02:11:08;;;;;;;10.10;6.20;;;;;;;-143.84;63.45;45254.72;5012324;28;20447;-74
2023/01/30 02:13:35;;;;;;;8.17;5.50;;;;;;;-143.84;63.79;45231.88;5012091;28;20521;-74
2023/01/30 02:16:04;;;;;;;8.17;5.43;;;;;;;-143.84;64.03;45289.00;5011751;28;20468;-74
2023/01/30 02:18:36;;;;;;;6.80;5.60;;;;;;;-143.84;64.05;45268.06;5011616;28;20472;-74
2023/01/30 02:21:36;;;;;;;9.07;6.00;;;;;;;-143.84;64.42;45264.25;5010960;28;20565;-74
2023/01/30 02:24:27;;;;;;;9.83;5.97;;;;;;;-143.84;64.42;45256.63;5011124;28;20436;-74
2023/01/30 02:27:17;;;;;;;7.67;5.40;;;;;;;-143.84;63.82;45277.56;5011823;28;20448;-74
2023/01/30 02:30:16;;;;;;;7.07;5.57;;;;;;;-143.84;64.42;45281.38;5007090;28;20447;-74
2023/01/30 02:32:52;;;;;;;6.53;5.17;;;;;;;-143.84;64.30;45298.53;4971911;28;20513;-74
2023/01/30 02:35:28;;;;;;;8.37;5.93;;;;;;;-143.84;64.44;45264.25;4972451;28;20452;-74
2023/01/30 02:38:06;;;;;;;7.00;5.47;;;;;;;-143.84;64.71;45260.44;4972530;28;20848;-74
2023/01/30 02:40:42;;;;;;;11.70;6.17;;;;;;;-143.84;65.28;45281.38;4972456;28;20485;-74
2023/01/30 02:43:19;;;;;;;9.10;5.80;;;;;;;-143.84;65.25;45292.81;4980418;28;20480;-74
2023/01/30 02:45:54;;;;;;;5.43;4.63;;;;;;;-143.84;64.90;45287.09;4991285;28;20440;-74
2023/01/30 02:48:28;;;;;;;5.47;4.97;;;;;;;-143.84;65.12;45298.53;5010384;28;21373;-74
2023/01/30 02:50:59;;;;;;;5.83;5.23;;;;;;;-143.84;65.65;45258.53;5010770;28;20453;-74
2023/01/30 02:53:30;;;;;;;7.20;4.57;;;;;;;-143.84;65.90;45250.91;5010749;28;20456;-74
2023/01/30 02:55:57;;;;;;;7.63;5.40;;;;;;;-143.84;66.11;45271.88;5011344;28;20447;-74
2023/01/30 02:58:27;;;;;;;7.50;5.30;;;;;;;-143.84;66.16;45279.47;5011343;28;20506;-74
2023/01/30 03:01:17;;;;;;;10.10;6.17;;;;;;;-143.84;66.47;45275.66;5011322;28;20935;-74
2023/01/30 03:04:01;;;;;;;8.33;5.80;;;;;;;-143.84;66.36;45279.47;5010991;28;20452;-74
2023/01/30 03:06:48;;;;;;;8.57;5.10;;;;;;;-143.84;66.56;45273.78;5011160;28;20447;-74
2023/01/30 03:09:22;;;;;;;8.77;5.20;;;;;;;-143.84;66.53;45289.00;5010881;28;20474;-74
2023/01/30 03:11:58;;;;;;;11.73;5.93;;;;;;;-143.84;66.88;45266.16;5011204;28;20447;-74
2023/01/30 03:14:29;;;;;;;8.53;6.00;;;;;;;-143.84;66.70;45313.75;5010524;28;20517;-74
2023/01/30 03:16:59;;;;;;;8.73;5.57;;;;;;;-143.84;67.12;45283.28;5008793;28;20582;-74
2023/01/30 03:19:29;;;;;;;10.80;5.50;;;;;;;-143.84;66.79;45254.72;5009736;28;21036;-74
2023/01/30 03:21:57;;;;;;;7.33;5.57;;;;;;;-143.84;67.03;45275.66;5009860;28;20458;-74
2023/01/30 03:24:24;;;;;;;8.90;6.33;;;;;;;-143.84;67.61;45304.25;5010717;28;20479;-74
2023/01/30 03:26:58;;;;;;;6.57;4.40;;;;;;;-143.84;67.33;45277.56;5011313;28;21234;-74
2023/01/30 03:29:25;;;;;;;12.43;5.80;;;;;;;-143.84;67.52;45281.38;5011192;28;20848;-74
2023/01/30 03:31:52;;;;;;;7.90;5.87;;;;;;;-143.84;67.66;45296.63;5010913;28;20498;-74
2023/01/30 03:34:19;;;;;;;9.63;5.00;;;;;;;-143.84;68.02;45281.38;5011135;28;20494;-74
2023/01/30 03:36:49;;;;;;;10.10;5.67;;;;;;;-143.84;67.89;45271.88;5009027;28;20447;-74
2023/01/30 03:39:16;;;;;;;9.50;6.10;;;;;;;-143.84;68.80;45296.63;5010367;28;20532;-74
2023/01/30 03:41:43;;;;;;;7.50;5.57;;;;;;;-143.84;69.29;45269.97;5010334;28;20448;-74
2023/01/30 03:44:10;;;;;;;11.63;5.53;;;;;;;-143.84;69.97;45250.91;5008492;28;20471;-74
2023/01/30 03:46:37;;;;;;;7.07;5.30;;;;;;;-143.84;69.97;45290.91;4991028;28;20449;-74
2023/01/30 03:49:04;;;;;;;7.23;5.30;;;;;;;-143.84;70.43;45296.63;4990850;28;20538;-74
2023/01/30 03:51:32;;;;;;;8.70;6.10;;;;;;;-143.84;70.36;45289.00;4990781;28;20437;-74
2023/01/30 03:54:00;;;;;;;8.27;5.97;;;;;;;-143.84;70.25;45264.25;4990924;28;20938;-74
2023/01/30 03:56:27;;;;;;;8.23;5.47;;;;;;;-143.84;71.01;45258.53;4990765;28;20866;-74
2023/01/30 03:58:54;;;;;;;8.43;5.80;;;;;;;-143.84;70.82;45271.88;4990499;28;20511;-74
2023/01/30 04:01:21;;;;;;;12.83;7.00;;;;;;;-143.84;70.97;45239.50;4990556;28;20503;-74
2023/01/30 04:03:49;;;;;;;11.97;7.50;;;;;;;-143.84;70.51;45283.28;4990506;28;20441;-74
2023/01/30 04:06:16;;;;;;;9.83;6.13;;;;;;;-143.84;71.37;45287.09;4989962;28;20585;-74
2023/01/30 04:08:43;;;;;;;11.80;7.97;;;;;;;-143.84;71.24;45275.66;4989794;28;21063;-74
2023/01/30 04:11:11;;;;;;;11.63;6.80;;;;;;;-143.84;71.58;45264.25;4990071;28;20441;-74
2023/01/30 04:13:38;;;;;;;10.93;6.80;;;;;;;-143.84;71.38;45254.72;5006807;28;20518;-74
2023/01/30 04:16:17;;;;;;;10.10;6.60;;;;;;;-143.84;72.09;45275.66;5010936;28;20497;-74
2023/01/30 04:18:44;;;;;;;9.10;6.40;;;;;;;-143.84;72.23;45254.72;5013686;28;20451;-74
2023/01/30 04:21:12;;;;;;;8.10;6.40;;;;;;;-143.84;71.71;45283.28;5013609;28;20561;-74
2023/01/30 04:23:39;;;;;;;15.10;7.90;;;;;;;-143.84;72.22;45260.44;5013920;28;20940;-74
2023/01/30 04:26:07;;;;;;;16.90;7.73;;;;;;;-143.84;72.44;45271.88;5014026;28;20815;-74
2023/01/30 04:28:36;;;;;;;9.50;6.37;;;;;;;-143.84;72.74;45283.28;5013627;28;20857;-74
2023/01/30 04:31:03;;;;;;;15.93;8.30;;;;;;;-143.84;73.10;45252.81;5013643;28;20516;-74
2023/01/30 04:33:34;;;;;;;9.67;6.77;;;;;;;-143.84;72.46;45266.16;5013645;28;20448;-74
2023/01/30 04:36:02;;;;;;;10.90;7.10;;;;;;;-143.84;72.70;45277.56;5013598;28;20442;-74
2023/01/30 04:38:31;;;;;;;11.97;6.63;;;;;;;-143.84;72.42;45273.78;5013297;28;20449;-74
2023/01/30 04:40:58;;;;;;;9.60;7.27;;;;;;;-143.84;72.99;45275.66;5013517;28;20561;-74
2023/01/30 04:43:27;;;;;;;9.83;5.93;;;;;;;-143.84;73.36;45268.06;5013478;28;20443;-74
2023/01/30 04:45:56;;;;;;;10.40;6.80;;;;;;;-143.84;73.47;45269.97;5013489;28;20448;-74
2023/01/30 04:48:24;;;;;;;9.10;6.20;;;;;;;-143.84;73.35;45281.38;5013221;28;20452;-74
2023/01/30 04:50:54;;;;;;;10.03;6.40;;;;;;;-143.84;73.00;45262.34;5012992;28;21216;-74
2023/01/30 04:53:22;;;;;;;10.27;7.40;;;;;;;-143.84;73.04;45266.16;5012180;28;20538;-74
2023/01/30 04:55:49;;;;;;;8.97;6.20;;;;;;;-143.84;73.45;45264.25;5013265;28;20458;-74
2023/01/30 04:58:18;;;;;;;11.43;7.07;;;;;;;-143.84;73.08;45281.38;5009410;28;21011;-74
2023/01/30 05:00:45;;;;;;;13.20;7.60;;;;;;;-143.84;73.41;45271.88;5013174;28;20483;-73
2023/01/30 05:03:13;;;;;;;9.97;6.53;;;;;;;-143.84;72.93;45292.81;5012715;28;20435;-74
2023/01/30 05:05:47;;;;;;;10.20;6.00;;;;;;;-143.84;73.22;45264.25;5013095;28;20443;-75
2023/01/30 05:08:14;;;;;;;10.90;6.97;;;;;;;-143.84;73.70;45290.91;5012974;28;20431;-73
2023/01/30 05:10:41;;;;;;;11.40;6.67;;;;;;;-143.84;74.70;45285.19;5013086;28;20436;-74
2023/01/30 05:13:08;;;;;;;12.40;6.37;;;;;;;-143.84;74.05;45249.00;5012974;28;20987;-74
2023/01/30 05:15:35;;;;;;;9.07;6.27;;;;;;;-143.84;73.73;45243.31;5012900;28;20441;-74
2023/01/30 05:18:02;;;;;;;10.50;7.10;;;;;;;-143.84;73.58;45285.19;5009910;28;20513;-74
2023/01/30 05:20:31;;;;;;;10.67;6.93;;;;;;;-143.84;73.27;45264.25;5012750;28;20984;-75
2023/01/30 05:22:58;;;;;;;10.70;7.10;;;;;;;-143.84;72.73;45269.97;5019200;28;20451;-74
2023/01/30 05:25:25;;;;;;;11.77;7.20;;;;;;;-143.84;72.59;45256.63;5031799;28;20439;-75
2023/01/30 05:27:52;;;;;;;9.97;6.83;;;;;;;-143.84;73.05;45269.97;5029931;28;20455;-74
2023/01/30 05:30:20;;;;;;;9.47;6.73;;;;;;;-143.84;74.38;45254.72;5031011;28;20454;-73
2023/01/30 05:32:47;;;;;;;11.47;7.60;;;;;;;-143.84;73.92;45254.72;5030772;28;20528;-76
2023/01/30 05:35:14;;;;;;;10.83;8.80;;;;;;;-143.84;73.63;45266.16;5031766;28;20442;-74
2023/01/30 05:37:43;;;;;;;13.80;7.43;;;;;;;-143.84;72.64;45262.34;5028028;28;21884;-75
2023/01/30 05:40:11;;;;;;;19.00;10.10;;;;;;;-143.84;72.36;45277.56;5010395;28;21221;-77
2023/01/30 05:42:38;;;;;;;14.80;9.33;;;;;;;-143.84;72.11;45277.56;5010904;28;20435;-77
2023/01/30 05:45:06;;;;;;;19.83;11.07;;;;;;;-143.84;72.72;45296.63;5011170;28;20455;-76
2023/01/30 05:47:41;;;;;;;12.20;7.83;;;;;;;-143.84;72.76;45283.28;5010972;28;20443;-70
2023/01/30 05:50:10;;;;;;;9.30;6.43;;;;;;;-143.84;73.18;45285.19;5010869;28;20443;-70
2023/01/30 05:52:37;;;;;;;11.83;7.20;;;;;;;-143.84;72.27;45269.97;5010187;28;20433;-70
2023/01/30 05:55:07;;;;;;;9.23;6.80;;;;;;;-143.84;72.88;45269.97;5010389;28;20444;-70
2023/01/30 05:57:34;;;;;;;7.80;6.50;;;;;;;-143.84;72.73;45296.63;5010300;28;20440;-70
2023/01/30 06:00:01;;;;;;;12.77;7.10;;;;;;;-143.84;73.21;45273.78;5009458;28;20567;-70
2023/01/30 06:02:30;;;;;;;12.17;6.20;;;;;;;-143.84;73.70;45250.91;5010481;28;20436;-70
2023/01/30 06:04:57;;;;;;;9.97;7.23;;;;;;;-143.84;73.50;45296.63;5009857;28;20558;-70
2023/01/30 06:07:24;;;;;;;11.70;7.20;;;;;;;-143.84;74.04;45289.00;5009158;28;20505;-71
2023/01/30 06:09:51;;;;;;;10.13;7.47;;;;;;;-143.84;73.75;45277.56;5009564;28;20451;-70
2023/01/30 06:12:19;;;;;;;9.00;7.00;;;;;;;-143.84;74.21;45357.56;5009550;28;20447;-70
2023/01/30 06:14:47;;;;;;;12.90;7.60;;;;;;;-143.84;73.92;45252.81;5009807;28;20460;-70
2023/01/30 06:17:14;;;;;;;11.83;8.10;;;;;;;-143.84;73.74;45269.97;5009390;28;20448;-70
2023/01/30 06:19:41;;;;;;;12.10;7.33;;;;;;;-143.84;74.13;45277.56;5009937;28;20502;-70
2023/01/30 06:22:08;;;;;;;11.70;8.00;;;;;;;-143.84;73.59;45292.81;5010640;28;20494;-71
2023/01/30 06:24:35;;;;;;;15.20;7.47;;;;;;;-143.84;73.62;45264.25;5010802;28;20444;-71
2023/01/30 06:27:02;;;;;;;11.93;7.40;;;;;;;-143.84;73.39;45269.97;5010513;28;20999;-71
2023/01/30 06:29:31;;;;;;;14.97;9.60;;;;;;;-143.84;73.43;45296.63;5010688;28;20493;-70
2023/01/30 06:31:58;;;;;;;22.63;10.70;;;;;;;-143.84;73.33;45271.88;5010619;28;20473;-71
2023/01/30 06:34:25;;;;;;;19.00;11.57;;;;;;;-143.84;73.61;45281.38;5010428;28;20443;-71
2023/01/30 06:36:52;;;;;;;13.73;9.90;;;;;;;-143.84;73.16;45256.63;5010649;28;20599;-70
2023/01/30 06:39:19;;;;;;;16.07;10.30;;;;;;;-143.84;73.63;45273.78;5009907;28;20530;-71
2023/01/30 06:41:46;;;;;;;23.03;15.70;;;;;;;-143.84;73.20;45256.63;5010407;28;20487;-71
2023/01/30 06:44:13;;;;;;;13.30;9.63;;;;;;;-143.84;73.04;45290.91;5010051;28;20439;-71
2023/01/30 06:46:42;;;;;;;11.80;8.60;;;;;;;-143.84;72.82;45279.47;5010381;28;20439;-71
2023/01/30 06:49:09;;;;;;;13.20;10.10;;;;;;;-143.84;72.93;45281.38;5010665;28;21182;-71
2023/01/30 06:51:36;;;;;;;11.80;9.37;;;;;;;-143.84;72.70;45258.53;5010611;28;20478;-71
2023/01/30 06:54:03;;;;;;;15.70;9.17;;;;;;;-143.84;72.51;45262.34;5010421;28;20436;-71
2023/01/30 06:56:30;;;;;;;13.23;7.53;;;;;;;-143.84;72.83;45264.25;5010278;28;20450;-71
2023/01/30 06:58:57;;;;;;;12.73;6.80;;;;;;;-143.84;72.82;45268.06;5010502;28;20439;-71
2023/01/30 07:01:24;;;;;;;14.13;9.53;;;;;;;-143.84;72.93;45266.16;5010247;28;20483;-71
2023/01/30 07:03:53;;;;;;;8.60;6.83;;;;;;;-143.84;72.45;45268.06;5010140;28;20454;-71
2023/01/30 07:06:20;;;;;;;16.47;10.00;;;;;;;-143.84;72.49;45275.66;5010052;28;20439;-71
2023/01/30 07:08:47;;;;;;;11.70;9.10;;;;;;;-143.84;72.22;45281.38;5009665;28;20443;-71
2023/01/30 07:11:14;;;;;;;13.37;8.17;;;;;;;-143.84;72.85;45260.44;5009948;28;20443;-71
2023/01/30 07:13:41;;;;;;;10.30;7.83;;;;;;;-143.84;73.02;45283.28;5009646;28;20451;-71
2023/01/30 07:16:09;;;;;;;9.07;7.83;;;;;;;-143.84;72.60;45250.91;5009895;28;20510;-71
2023/01/30 07:18:36;;;;;;;10.80;9.47;;;;;;;-143.84;72.55;45271.88;5008961;28;20455;-71
2023/01/30 07:21:04;;;;;;;16.40;9.00;;;;;;;-143.84;72.60;45258.53;5008958;28;20487;-71
2023/01/30 07:23:31;;;;;;;11.20;8.17;;;;;;;-143.84;72.18;45260.44;5009334;28;21008;-71
2023/01/30 07:25:59;;;;;;;11.70;8.10;;;;;;;-143.84;72.59;45258.53;5009575;28;20510;-71
2023/01/30 07:28:26;;;;;;;14.60;10.83;;;;;;;-143.84;72.31;45262.34;5009554;28;20436;-71
2023/01/30 07:30:53;;;;;;;13.07;9.10;;;;;;;-143.84;71.84;45277.56;5009502;28;20443;-71
2023/01/30 07:33:20;;;;;;;11.80;8.93;;;;;;;-143.84;71.97;45287.09;5009666;28;20447;-71
2023/01/30 07:35:47;;;;;;;14.23;7.97;;;;;;;-143.84;72.50;45285.19;5009606;28;20831;-71
2023/01/30 07:38:16;;;;;;;12.03;8.47;;;;;;;-143.84;71.96;45277.56;5009283;28;20857;-71
2023/01/30 07:40:43;;;;;;;17.97;9.07;;;;;;;-143.84;71.62;45287.09;5009209;28;20475;-71
2023/01/30 07:43:13;;;;;;;14.30;8.77;;;;;;;-143.84;71.40;45277.56;5008967;28;20448;-71
2023/01/30 07:45:42;;;;;;;17.40;11.47;;;;;;;-143.84;71.62;45245.19;5009561;28;20575;-71
2023/01/30 07:48:11;;;;;;;18.07;10.77;;;;;;;-143.84;70.77;45243.31;5009304;28;20444;-71
2023/01/30 07:50:38;;;;;;;22.50;12.63;;;;;;;-143.84;71.40;45241.41;5008075;28;20456;-71
2023/01/30 07:53:06;;;;;;;26.07;14.53;;;;;;;-143.84;71.01;45298.53;5008700;28;20952;-71
2023/01/30 07:55:35;;;;;;;27.73;17.73;;;;;;;-143.84;71.04;45262.34;5008436;28;20444;-71
2023/01/30 07:58:03;;;;;;;27.00;17.80;;;;;;;-143.84;70.54;45266.16;5008958;28;20513;-71
2023/01/30 08:00:31;;;;;;;21.40;13.30;;;;;;;-143.84;71.26;45273.78;5009096;28;20484;-71
2023/01/30 08:02:59;;;;;;;24.50;16.00;;;;;;;-143.84;71.13;45235.69;5009024;28;20517;-71
2023/01/30 08:05:26;;;;;;;22.67;14.47;;;;;;;-143.84;70.89;45294.72;5008985;28;20954;-71
2023/01/30 08:07:56;;;;;;;20.87;14.27;;;;;;;-143.84;70.63;45252.81;5009085;28;20549;-71
2023/01/30 08:10:23;;;;;;;20.80;14.37;;;;;;;-143.84;71.26;45266.16;5009152;28;20450;-71
2023/01/30 08:12:52;;;;;;;22.60;15.73;;;;;;;-143.84;71.71;45252.81;5009024;28;20460;-71
2023/01/30 08:15:19;;;;;;;26.17;17.03;;;;;;;-143.84;71.19;45279.47;5008819;28;20448;-71
2023/01/30 08:17:55;;;;;;;25.37;14.90;;;;;;;-143.84;71.80;45277.56;5008833;28;20447;-71
2023/01/30 08:20:22;;;;;;;32.30;15.20;;;;;;;-143.84;71.24;45289.00;5008730;28;20577;-71
2023/01/30 08:22:49;;;;;;;24.30;13.33;;;;;;;-143.84;70.92;45283.28;5008712;28;20439;-71
2023/01/30 08:25:16;;;;;;;27.80;14.40;;;;;;;-143.84;71.41;45258.53;5008978;28;20452;-71
2023/01/30 08:27:43;;;;;;;28.83;15.60;;;;;;;-143.84;71.35;45279.47;5008081;28;20970;-71
2023/01/30 08:30:13;;;;;;;22.57;14.57;;;;;;;-143.84;71.42;45252.81;5008965;28;20515;-71
2023/01/30 08:32:40;;;;;;;19.50;11.83;;;;;;;-143.84;71.37;45249.00;5008633;28;20448;-71
2023/01/30 08:35:09;;;;;;;20.83;13.13;;;;;;;-143.84;71.51;45250.91;5008611;28;21051;-70
2023/01/30 08:37:38;;;;;;;18.07;12.33;;;;;;;-143.84;71.55;45243.31;5008020;28;20440;-70
2023/01/30 08:40:07;;;;;;;16.40;10.00;;;;;;;-143.84;71.28;45283.28;5008620;28;21041;-70
2023/01/30 08:42:34;;;;;;;35.80;18.60;;;;;;;-143.84;71.17;45258.53;5008800;28;20497;-70
2023/01/30 08:45:01;;;;;;;37.80;19.20;;;;;;;-143.84;70.73;45254.72;5008932;28;20458;-70
2023/01/30 08:47:31;;;;;;;37.17;18.27;;;;;;;-143.84;70.90;45241.41;5008754;28;20653;-70
2023/01/30 08:49:58;;;;;;;25.80;14.77;;;;;;;-143.84;70.97;45277.56;5008527;28;20451;-70
2023/01/30 08:52:25;;;;;;;19.33;12.97;;;;;;;-143.84;70.42;45269.97;5008926;28;20453;-70
2023/01/30 08:54:52;;;;;;;13.93;10.07;;;;;;;-143.84;70.23;45266.16;5008364;28;20441;-70
2023/01/30 08:57:19;;;;;;;18.70;10.87;;;;;;;-143.84;69.71;45262.34;5008496;28;20832;-70
2023/01/30 08:59:47;;;;;;;14.93;10.17;;;;;;;-143.84;69.36;45285.19;5008365;28;20439;-70
2023/01/30 09:02:14;;;;;;;15.50;10.00;;;;;;;-143.84;69.39;45271.88;5008971;28;20478;-70
2023/01/30 09:04:42;;;;;;;18.70;11.73;;;;;;;-143.84;69.28;45264.25;5011036;28;20447;-70
2023/01/30 09:07:09;;;;;;;15.40;10.77;;;;;;;-143.84;69.42;45277.56;5011830;28;20964;-71
2023/01/30 09:09:36;;;;;;;15.33;10.57;;;;;;;-143.84;69.58;45254.72;5011447;28;20509;-70
2023/01/30 09:12:04;;;;;;;18.10;10.40;;;;;;;-143.84;69.53;45245.19;5012106;28;20442;-70
2023/01/30 09:14:31;;;;;;;17.87;9.60;;;;;;;-143.84;68.96;45247.09;5011968;28;20439;-70
2023/01/30 09:16:58;;;;;;;16.00;10.10;;;;;;;-143.84;68.44;45273.78;5011902;28;20435;-70
2023/01/30 09:19:27;;;;;;;11.83;9.10;;;;;;;-143.84;68.18;45237.59;5011639;28;20490;-70
2023/01/30 09:21:56;;;;;;;15.80;10.30;;;;;;;-143.84;68.33;45250.91;5011803;28;21102;-70
2023/01/30 09:24:25;;;;;;;20.50;10.07;;;;;;;-143.84;67.48;45243.31;5011552;28;20517;-71
2023/01/30 09:26:52;;;;;;;13.10;9.67;;;;;;;-143.84;66.50;45264.25;5011730;28;20479;-70
2023/01/30 09:29:19;;;;;;;15.17;11.00;;;;;;;-143.84;65.93;45249.00;5011600;28;20505;-70
2023/01/30 09:31:47;;;;;;;15.53;9.80;;;;;;;-143.84;63.89;45218.53;5011945;28;20455;-70
2023/01/30 09:34:14;;;;;;;16.90;9.83;;;;;;;-143.84;60.86;45252.81;5011802;28;20453;-70
2023/01/30 09:36:41;;;;;;;10.90;8.33;;;;;;;-143.84;58.54;45222.34;5011493;28;20505;-70
2023/01/30 09:39:10;;;;;;;19.63;11.80;;;;;;;-143.84;58.22;45243.31;5011488;28;20440;-70
2023/01/30 09:41:58;;;;;;;26.70;11.07;;;;;;;-143.84;59.24;45224.25;5011281;28;20485;-70
2023/01/30 09:45:03;;;;;;;18.27;11.37;;;;;;;-143.84;60.69;45229.97;5011508;28;20443;-70
2023/01/30 09:47:40;;;;;;;18.37;11.47;;;;;;;-143.84;60.89;45222.34;4912680;29;21028;-70
2023/01/30 09:50:35;;;;;;;20.43;11.47;;;;;;;-143.84;60.98;45229.97;5000563;28;20455;-70
2023/01/30 09:53:09;;;;;;;25.23;12.87;;;;;;;-143.84;60.21;45222.34;5010745;28;20858;-70
2023/01/30 09:55:41;;;;;;;16.70;10.93;;;;;;;-143.84;60.44;45249.00;5011037;28;20467;-70
2023/01/30 09:58:20;;;;;;;37.73;13.00;;;;;;;-143.84;59.66;45239.50;5011190;28;20539;-70
2023/01/30 10:00:50;;;;;;;26.20;11.73;;;;;;;-143.84;59.81;45235.69;5011300;28;20441;-70
2023/01/30 10:03:20;;;;;;;22.20;13.17;;;;;;;-143.84;58.93;45245.19;5011044;28;20439;-71
2023/01/30 10:05:50;;;;;;;25.73;13.57;;;;;;;-143.84;59.13;45254.72;5010832;28;20440;-70
2023/01/30 10:08:43;;;;;;;24.43;11.03;;;;;;;-143.84;57.11;45247.09;5010175;28;20440;-70
2023/01/30 10:11:25;;;;;;;15.03;9.10;;;;;;;-143.84;56.47;45239.50;4999895;28;20903;-71
2023/01/30 10:14:08;;;;;;;19.03;11.17;;;;;;;-143.84;55.91;45235.69;5009549;28;20450;-70
2023/01/30 10:16:43;;;;;;;23.47;12.57;;;;;;;-143.84;55.66;45239.50;5010229;28;20864;-70
2023/01/30 10:19:55;;;;;;;19.40;11.17;;;;;;;-143.84;55.12;45252.81;5010094;28;20451;-70
2023/01/30 10:22:37;;;;;;;28.63;12.57;;;;;;;-143.84;56.34;45247.09;4953752;28;20495;-69
2023/01/30 10:25:17;;;;;;;22.60;12.00;;;;;;;-143.84;56.29;45209.03;5012004;28;20514;-70
2023/01/30 10:27:52;;;;;;;23.93;12.63;;;;;;;-143.84;55.40;45195.69;4996773;28;20917;-71
2023/01/30 10:30:22;;;;;;;21.03;10.43;;;;;;;-143.84;55.38;45224.25;4991689;28;20452;-70
2023/01/30 10:32:55;;;;;;;16.83;11.07;;;;;;;-143.84;53.94;45247.09;4991289;28;20456;-70
2023/01/30 10:35:27;;;;;;;24.63;14.20;;;;;;;-143.84;53.24;45220.44;4990826;28;20451;-70
2023/01/30 10:38:03;;;;;;;22.40;13.70;;;;;;;-143.84;54.35;45235.69;4990617;28;20485;-70
2023/01/30 10:40:38;;;;;;;31.43;13.53;;;;;;;-143.84;54.50;45241.41;4990847;28;20454;-70
2023/01/30 10:43:17;;;;;;;16.73;11.67;;;;;;;-143.84;55.43;45233.78;4990431;28;20519;-70
2023/01/30 10:45:52;;;;;;;15.33;11.27;;;;;;;-143.84;54.49;45224.25;4990146;28;20480;-70
2023/01/30 10:48:33;;;;;;;17.03;10.77;;;;;;;-143.84;54.33;45237.59;4990044;28;20448;-70
2023/01/30 10:51:05;;;;;;;14.90;9.67;;;;;;;-143.84;55.12;45226.16;4990416;28;20444;-71
2023/01/30 10:53:40;;;;;;;17.13;10.47;;;;;;;-143.84;54.06;45228.06;4989787;28;20444;-70
2023/01/30 10:56:17;;;;;;;24.73;13.27;;;;;;;-143.84;55.27;45252.81;4990721;28;20455;-71
2023/01/30 10:58:53;;;;;;;14.50;9.23;;;;;;;-143.84;54.83;45226.16;4990075;28;20449;-70
2023/01/30 11:01:25;;;;;;;14.60;10.03;;;;;;;-143.84;54.58;45218.53;4989602;28;20546;-71
2023/01/30 11:03:56;;;;;;;13.00;8.90;;;;;;;-143.84;54.32;45256.63;4990443;28;20509;-70
2023/01/30 11:06:26;;;;;;;19.07;11.03;;;;;;;-143.84;53.80;45212.84;4990641;28;20436;-70
2023/01/30 11:08:55;;;;;;;16.47;10.30;;;;;;;-143.84;52.95;45199.50;4990527;28;20453;-70
2023/01/30 11:11:28;;;;;;;13.20;9.40;;;;;;;-143.84;54.35;45233.78;4989908;28;20456;-70
2023/01/30 11:14:05;;;;;;;12.87;10.07;;;;;;;-143.84;54.22;45233.78;4990187;28;20444;-70
2023/01/30 11:16:42;;;;;;;18.57;10.00;;;;;;;-143.84;53.86;45258.53;4990229;28;20448;-70
2023/01/30 11:19:10;;;;;;;16.03;9.67;;;;;;;-143.84;52.85;45233.78;4989886;28;20838;-70
2023/01/30 11:21:41;;;;;;;17.17;10.87;;;;;;;-143.84;53.02;45252.81;4990053;28;20487;-71
2023/01/30 11:24:15;;;;;;;23.63;10.30;;;;;;;-143.84;53.63;45245.19;4989986;28;20449;-70
2023/01/30 11:26:43;;;;;;;21.40;10.93;;;;;;;-143.84;53.78;45212.84;4990236;28;20626;-70
2023/01/30 11:29:26;;;;;;;18.37;12.13;;;;;;;-143.84;54.24;45241.41;4990487;28;20444;-70
2023/01/30 11:31:54;;;;;;;22.53;12.53;;;;;;;-143.84;55.16;45220.44;4989970;28;20831;-70